createdAt,value
2022-09-21T00:01:28.175Z,11.80
2022-09-21T00:04:01.529Z,8.32
2022-09-21T00:06:32.786Z,9.63
2022-09-21T00:08:59.825Z,11.18
2022-09-21T00:11:30.340Z,7.73
2022-09-21T00:14:07.215Z,12.25
2022-09-21T00:16:34.941Z,8.30
2022-09-21T00:19:02.333Z,13.40
2022-09-21T00:21:30.396Z,11.15
2022-09-21T00:23:57.902Z,11.70
2022-09-21T00:26:27.383Z,11.57
2022-09-21T00:29:00.290Z,10.40
2022-09-21T00:31:29.506Z,8.70
2022-09-21T00:33:58.279Z,8.70
2022-09-21T00:36:26.026Z,10.67
2022-09-21T00:38:59.069Z,9.18
2022-09-21T00:41:27.906Z,8.93
2022-09-21T00:44:32.117Z,10.18
2022-09-21T00:47:10.117Z,11.15
2022-09-21T00:49:39.813Z,9.37
2022-09-21T00:52:08.955Z,12.43
2022-09-21T00:54:46.670Z,10.07
2022-09-21T00:57:15.950Z,11.73
2022-09-21T00:59:45.523Z,8.80
2022-09-21T01:02:12.684Z,8.20
2022-09-21T01:04:39.778Z,13.25
2022-09-21T01:07:14.097Z,9.43
2022-09-21T01:09:43.306Z,8.65
2022-09-21T01:12:52.054Z,8.25
2022-09-21T01:15:59.195Z,10.37
2022-09-21T01:18:53.341Z,7.57
2022-09-21T01:21:26.736Z,12.93
2022-09-21T01:24:12.302Z,8.60
2022-09-21T01:27:13.018Z,7.18
2022-09-21T01:30:07.309Z,9.00
2022-09-21T01:33:06.653Z,8.93
2022-09-21T01:35:46.156Z,9.82
2022-09-21T01:38:27.248Z,7.78
2022-09-21T01:41:03.632Z,12.10
2022-09-21T01:43:46.206Z,10.60
2022-09-21T01:46:21.428Z,10.32
2022-09-21T01:48:54.587Z,8.77
2022-09-21T01:51:26.545Z,9.13
2022-09-21T01:54:02.919Z,10.63
2022-09-21T01:56:53.975Z,8.57
2022-09-21T01:59:37.158Z,7.57
2022-09-21T02:02:14.738Z,9.90
2022-09-21T02:04:42.018Z,9.57
2022-09-21T02:07:09.306Z,8.55
2022-09-21T02:09:37.649Z,8.40
2022-09-21T02:12:05.539Z,7.40
2022-09-21T02:14:33.682Z,6.30
2022-09-21T02:17:48.094Z,9.20
2022-09-21T02:20:24.376Z,6.93
2022-09-21T02:23:16.052Z,9.50
2022-09-21T02:26:26.512Z,10.20
2022-09-21T02:29:11.760Z,9.40
2022-09-21T02:31:54.019Z,6.88
2022-09-21T02:34:49.930Z,8.35
2022-09-21T02:37:49.464Z,6.37
2022-09-21T02:40:53.979Z,7.25
2022-09-21T02:43:34.120Z,7.55
2022-09-21T02:46:09.872Z,11.07
2022-09-21T02:48:46.703Z,9.38
2022-09-21T02:51:32.119Z,9.73
2022-09-21T02:54:03.892Z,11.00
2022-09-21T02:56:34.979Z,9.15
2022-09-21T02:59:05.681Z,8.43
2022-09-21T03:01:34.470Z,10.13
2022-09-21T03:04:02.354Z,8.87
2022-09-21T03:06:29.280Z,7.38
2022-09-21T03:08:58.449Z,10.02
2022-09-21T03:11:25.739Z,10.05
2022-09-21T03:13:52.808Z,9.55
2022-09-21T03:16:19.991Z,8.77
2022-09-21T03:18:47.001Z,10.82
2022-09-21T03:21:14.126Z,6.22
2022-09-21T03:23:41.155Z,8.68
2022-09-21T03:26:08.710Z,6.85
2022-09-21T03:28:35.966Z,6.33
2022-09-21T03:31:02.990Z,7.60
2022-09-21T03:33:29.991Z,8.70
2022-09-21T03:35:56.883Z,13.20
2022-09-21T03:38:25.670Z,7.82
2022-09-21T03:40:53.517Z,8.73
2022-09-21T03:43:20.514Z,9.40
2022-09-21T03:45:48.653Z,7.10
2022-09-21T03:48:16.485Z,6.85
2022-09-21T03:50:43.771Z,6.32
2022-09-21T03:53:11.562Z,8.23
2022-09-21T03:55:38.690Z,8.43
2022-09-21T03:58:06.485Z,8.05
2022-09-21T04:00:34.105Z,9.18
2022-09-21T04:03:01.986Z,6.68
2022-09-21T04:05:29.392Z,7.70
2022-09-21T04:07:56.983Z,9.75
2022-09-21T04:10:29.163Z,11.35
2022-09-21T04:13:03.354Z,7.30
2022-09-21T04:15:31.232Z,8.73
2022-09-21T04:17:59.080Z,7.50
2022-09-21T04:20:26.199Z,7.38
2022-09-21T04:22:53.181Z,8.70
2022-09-21T04:25:20.508Z,7.22
2022-09-21T04:27:47.805Z,8.10
2022-09-21T04:30:16.710Z,9.10
2022-09-21T04:32:44.160Z,11.13
2022-09-21T04:35:11.698Z,11.57
2022-09-21T04:37:38.648Z,11.60
2022-09-21T04:40:07.383Z,8.93
2022-09-21T04:42:34.743Z,12.43
2022-09-21T04:45:01.810Z,11.20
2022-09-21T04:47:33.174Z,9.13
2022-09-21T04:50:00.052Z,8.88
2022-09-21T04:52:26.975Z,9.55
2022-09-21T04:54:53.907Z,9.30
2022-09-21T04:57:20.791Z,11.25
2022-09-21T04:59:47.760Z,9.00
2022-09-21T05:02:14.683Z,7.22
2022-09-21T05:04:41.568Z,8.27
2022-09-21T05:07:08.540Z,8.13
2022-09-21T05:09:54.195Z,11.70
2022-09-21T05:12:21.196Z,8.52
2022-09-21T05:14:48.181Z,7.40
2022-09-21T05:17:15.093Z,9.23
2022-09-21T05:19:42.103Z,7.50
2022-09-21T05:22:09.255Z,9.45
2022-09-21T05:24:36.136Z,8.25
2022-09-21T05:27:03.072Z,6.70
2022-09-21T05:29:30.835Z,8.60
2022-09-21T05:32:09.964Z,8.23
2022-09-21T05:34:48.620Z,10.52
2022-09-21T05:37:45.868Z,9.02
2022-09-21T05:40:13.984Z,11.18
2022-09-21T05:42:41.582Z,7.10
2022-09-21T05:45:15.856Z,9.00
2022-09-21T05:48:12.806Z,9.48
2022-09-21T05:51:09.507Z,9.57
2022-09-21T05:54:30.044Z,9.40
2022-09-21T05:57:31.215Z,8.40
2022-09-21T06:00:20.479Z,8.50
2022-09-21T06:03:17.661Z,9.05
2022-09-21T06:05:45.886Z,8.27
2022-09-21T06:08:12.737Z,6.78
2022-09-21T06:10:39.736Z,6.30
2022-09-21T06:13:06.606Z,8.73
2022-09-21T06:15:38.274Z,7.95
2022-09-21T06:18:09.225Z,10.98
2022-09-21T06:20:36.919Z,11.52
2022-09-21T06:23:12.714Z,7.55
2022-09-21T06:25:39.952Z,6.23
2022-09-21T06:28:11.088Z,9.85
2022-09-21T06:30:39.305Z,9.23
2022-09-21T06:33:07.619Z,8.55
2022-09-21T06:35:36.673Z,8.05
2022-09-21T06:38:07.009Z,10.10
2022-09-21T06:40:37.268Z,7.97
2022-09-21T06:43:05.839Z,8.85
2022-09-21T06:45:32.872Z,9.27
2022-09-21T06:48:00.019Z,10.55
2022-09-21T06:50:27.036Z,10.07
2022-09-21T06:52:54.734Z,13.38
2022-09-21T06:55:21.649Z,12.65
2022-09-21T06:57:49.319Z,13.57
2022-09-21T07:00:16.471Z,11.15
2022-09-21T07:02:45.355Z,12.80
2022-09-21T07:05:13.107Z,12.52
2022-09-21T07:07:40.414Z,12.48
2022-09-21T07:10:13.172Z,13.63
2022-09-21T07:12:43.619Z,12.02
2022-09-21T07:15:11.023Z,13.57
2022-09-21T07:17:39.637Z,12.30
2022-09-21T07:20:08.288Z,13.10
2022-09-21T07:22:36.348Z,10.75
2022-09-21T07:25:07.735Z,13.23
2022-09-21T07:27:35.148Z,13.07
2022-09-21T07:30:02.094Z,14.95
2022-09-21T07:32:30.848Z,13.23
2022-09-21T07:34:57.886Z,12.93
2022-09-21T07:37:26.155Z,14.15
2022-09-21T07:39:53.752Z,14.77
2022-09-21T07:42:22.638Z,13.57
2022-09-21T07:44:50.929Z,13.52
2022-09-21T07:47:18.246Z,15.02
2022-09-21T07:49:46.843Z,13.38
2022-09-21T07:52:14.363Z,10.43
2022-09-21T07:54:41.293Z,13.00
2022-09-21T07:57:26.758Z,12.82
2022-09-21T07:59:53.861Z,10.85
2022-09-21T08:02:20.858Z,14.05
2022-09-21T08:04:47.800Z,12.77
2022-09-21T08:07:14.735Z,15.05
2022-09-21T08:09:41.812Z,13.15
2022-09-21T08:12:10.983Z,12.13
2022-09-21T08:14:38.250Z,16.10
2022-09-21T08:17:05.200Z,13.63
2022-09-21T08:19:33.049Z,14.70
2022-09-21T08:21:59.980Z,13.80
2022-09-21T08:24:27.068Z,15.88
2022-09-21T08:26:56.005Z,13.77
2022-09-21T08:29:24.624Z,20.63
2022-09-21T08:31:53.541Z,15.40
2022-09-21T08:34:20.691Z,14.57
2022-09-21T08:36:50.652Z,21.10
2022-09-21T08:39:20.080Z,14.98
2022-09-21T08:42:19.675Z,11.73
2022-09-21T08:44:58.074Z,13.13
2022-09-21T08:48:05.651Z,12.05
2022-09-21T08:50:39.895Z,9.73
2022-09-21T08:53:30.408Z,15.23
2022-09-21T08:55:57.855Z,12.93
2022-09-21T08:58:31.107Z,11.00
2022-09-21T09:01:19.359Z,11.25
2022-09-21T09:04:29.940Z,12.77
2022-09-21T09:07:13.948Z,12.20
2022-09-21T09:10:14.856Z,7.77
2022-09-21T09:13:10.735Z,11.80
2022-09-21T09:16:30.784Z,10.15
2022-09-21T09:19:25.336Z,12.35
2022-09-21T09:21:52.519Z,9.38
2022-09-21T09:24:50.519Z,7.70
2022-09-21T09:27:30.715Z,8.23
2022-09-21T09:30:25.417Z,9.88
2022-09-21T09:33:16.446Z,10.45
2022-09-21T09:36:03.076Z,8.60
2022-09-21T09:38:42.193Z,9.17
2022-09-21T09:41:39.932Z,10.25
2022-09-21T09:44:25.165Z,10.38
2022-09-21T09:47:30.170Z,9.48
2022-09-21T09:50:21.678Z,7.55
2022-09-21T09:52:51.128Z,10.10
2022-09-21T09:55:26.105Z,5.15
2022-09-21T09:57:56.287Z,7.82
2022-09-21T10:00:23.496Z,8.27
2022-09-21T10:02:56.680Z,7.15
2022-09-21T10:05:32.903Z,10.87
2022-09-21T10:08:00.694Z,5.75
2022-09-21T10:10:34.056Z,7.35
2022-09-21T10:13:10.901Z,5.97
2022-09-21T10:15:50.869Z,9.43
2022-09-21T10:18:38.119Z,10.13
2022-09-21T10:21:35.755Z,5.15
2022-09-21T10:24:07.949Z,6.70
2022-09-21T10:26:50.201Z,7.40
2022-09-21T10:29:37.354Z,8.00
2022-09-21T10:32:24.662Z,10.60
2022-09-21T10:35:07.607Z,7.65
2022-09-21T10:37:48.397Z,8.30
2022-09-21T10:40:21.078Z,6.80
2022-09-21T10:43:00.376Z,12.43
2022-09-21T10:45:37.157Z,11.40
2022-09-21T10:48:17.583Z,8.48
2022-09-21T10:50:50.820Z,8.05
2022-09-21T10:53:34.149Z,8.65
2022-09-21T10:56:17.569Z,7.30
2022-09-21T10:59:19.585Z,5.40
2022-09-21T11:01:50.660Z,8.70
2022-09-21T11:04:31.301Z,5.93
2022-09-21T11:07:18.019Z,6.05
2022-09-21T11:10:02.069Z,8.70
2022-09-21T11:12:46.983Z,6.47
2022-09-21T11:15:38.256Z,10.23
2022-09-21T11:18:16.506Z,5.13
2022-09-21T11:21:07.995Z,6.03
2022-09-21T11:23:41.026Z,7.65
2022-09-21T11:26:27.223Z,5.93
2022-09-21T11:29:04.422Z,8.18
2022-09-21T11:32:07.841Z,5.82
2022-09-21T11:34:40.622Z,6.57
2022-09-21T11:37:35.261Z,7.05
2022-09-21T11:40:17.632Z,6.37
2022-09-21T11:43:10.965Z,4.97
2022-09-21T11:46:27.295Z,7.53
2022-09-21T11:50:03.083Z,8.15
2022-09-21T11:52:53.486Z,7.25
2022-09-21T11:55:48.288Z,8.00
2022-09-21T11:58:43.514Z,5.93
2022-09-21T12:01:57.422Z,6.28
2022-09-21T12:04:56.019Z,4.50
2022-09-21T12:08:15.023Z,4.28
2022-09-21T12:11:16.082Z,4.20
2022-09-21T12:14:01.423Z,5.35
2022-09-21T12:17:11.339Z,5.55
2022-09-21T12:19:43.812Z,6.10
2022-09-21T12:22:43.129Z,5.43
2022-09-21T12:25:22.047Z,5.30
2022-09-21T12:28:26.067Z,5.10
2022-09-21T12:31:04.018Z,3.95
2022-09-21T12:33:51.413Z,5.85
2022-09-21T12:36:36.977Z,8.60
2022-09-21T12:39:14.873Z,8.13
2022-09-21T12:41:52.199Z,4.30
2022-09-21T12:44:51.819Z,7.22
2022-09-21T12:47:57.968Z,4.35
2022-09-21T12:51:15.680Z,5.65
2022-09-21T12:53:52.936Z,7.57
2022-09-21T12:57:38.310Z,4.80
2022-09-21T13:00:16.341Z,6.32
2022-09-21T13:03:10.452Z,8.77
2022-09-21T13:06:09.846Z,4.20
2022-09-21T13:08:42.888Z,6.30
2022-09-21T13:11:10.575Z,6.45
2022-09-21T13:13:52.733Z,6.20
2022-09-21T13:16:34.252Z,6.28
2022-09-21T13:19:05.501Z,4.75
2022-09-21T13:21:34.284Z,3.67
2022-09-21T13:24:04.835Z,6.55
2022-09-21T13:26:42.699Z,7.22
2022-09-21T13:29:22.086Z,6.35
2022-09-21T13:32:13.988Z,6.03
2022-09-21T13:34:43.644Z,6.90
2022-09-21T13:37:19.272Z,5.82
2022-09-21T13:40:13.218Z,8.43
2022-09-21T13:42:48.793Z,6.00
2022-09-21T13:45:18.693Z,4.53
2022-09-21T13:47:54.311Z,6.53
2022-09-21T13:50:39.535Z,4.25
2022-09-21T13:53:24.953Z,5.35
2022-09-21T13:56:20.682Z,6.80
2022-09-21T13:58:52.090Z,8.60
2022-09-21T14:01:49.948Z,6.73
2022-09-21T14:04:27.079Z,4.65
2022-09-21T14:06:56.747Z,7.18
2022-09-21T14:09:52.316Z,4.95
2022-09-21T14:12:25.473Z,5.13
2022-09-21T14:15:19.362Z,6.47
2022-09-21T14:18:16.177Z,4.97
2022-09-21T14:21:16.960Z,4.65
2022-09-21T14:24:42.644Z,4.30
2022-09-21T14:27:41.213Z,5.63
2022-09-21T14:30:29.662Z,6.17
2022-09-21T14:32:59.649Z,7.53
2022-09-21T14:35:33.997Z,8.25
2022-09-21T14:38:11.251Z,6.28
2022-09-21T14:40:42.168Z,4.35
2022-09-21T14:43:27.179Z,6.37
2022-09-21T14:46:36.707Z,8.10
2022-09-21T14:49:44.766Z,5.95
2022-09-21T14:52:32.995Z,5.65
2022-09-21T14:55:16.900Z,5.95
2022-09-21T14:58:23.576Z,5.80
2022-09-21T15:00:51.242Z,6.03
2022-09-21T15:03:27.076Z,5.72
2022-09-21T15:06:25.690Z,5.85
2022-09-21T15:09:42.164Z,5.22
2022-09-21T15:12:19.219Z,6.67
2022-09-21T15:15:20.095Z,5.85
2022-09-21T15:18:00.563Z,5.07
2022-09-21T15:20:31.980Z,5.32
2022-09-21T15:23:00.864Z,8.13
2022-09-21T15:25:32.528Z,5.73
2022-09-21T15:28:02.604Z,4.38
2022-09-21T15:30:33.093Z,5.43
2022-09-21T15:33:02.224Z,6.00
2022-09-21T15:35:32.674Z,5.90
2022-09-21T15:38:01.212Z,4.63
2022-09-21T15:40:36.167Z,7.47
2022-09-21T15:43:13.079Z,7.05
2022-09-21T15:45:51.762Z,4.60
2022-09-21T15:48:20.558Z,6.05
2022-09-21T15:50:58.020Z,6.70
2022-09-21T15:53:57.469Z,6.93
2022-09-21T15:56:28.576Z,7.00
2022-09-21T15:59:08.482Z,6.78
2022-09-21T16:01:44.921Z,5.35
2022-09-21T16:04:21.833Z,6.40
2022-09-21T16:07:04.468Z,4.25
2022-09-21T16:09:45.069Z,5.47
2022-09-21T16:12:41.914Z,4.72
2022-09-21T16:15:24.238Z,5.60
2022-09-21T16:18:41.240Z,4.97
2022-09-21T16:21:33.935Z,6.63
2022-09-21T16:24:20.437Z,5.53
2022-09-21T16:27:02.559Z,6.90
2022-09-21T16:29:42.894Z,5.03
2022-09-21T16:32:18.912Z,4.93
2022-09-21T16:34:48.210Z,5.35
2022-09-21T16:37:28.000Z,7.88
2022-09-21T16:39:57.898Z,5.45
2022-09-21T16:42:33.314Z,6.45
2022-09-21T16:45:01.115Z,6.93
2022-09-21T16:47:28.705Z,3.90
2022-09-21T16:50:00.267Z,7.72
2022-09-21T16:52:29.595Z,5.82
2022-09-21T16:54:58.610Z,7.80
2022-09-21T16:57:26.491Z,7.63
2022-09-21T16:59:53.509Z,7.30
2022-09-21T17:02:20.595Z,7.25
2022-09-21T17:04:48.050Z,5.57
2022-09-21T17:07:16.839Z,6.85
2022-09-21T17:09:47.494Z,4.10
2022-09-21T17:12:17.736Z,7.38
2022-09-21T17:14:46.951Z,8.23
2022-09-21T17:17:23.894Z,8.15
2022-09-21T17:19:53.769Z,5.30
2022-09-21T17:22:21.928Z,4.77
2022-09-21T17:24:52.264Z,7.30
2022-09-21T17:27:26.633Z,5.97
2022-09-21T17:29:55.088Z,7.50
2022-09-21T17:32:24.190Z,8.02
2022-09-21T17:35:17.820Z,8.17
2022-09-21T17:37:45.886Z,13.73
2022-09-21T17:40:14.122Z,8.75
2022-09-21T17:42:48.463Z,11.85
2022-09-21T17:45:38.646Z,8.50
2022-09-21T17:48:07.919Z,7.30
2022-09-21T17:50:35.035Z,6.95
2022-09-21T17:53:20.962Z,7.78
2022-09-21T17:55:58.098Z,7.50
2022-09-21T17:59:00.996Z,10.68
2022-09-21T18:01:36.091Z,7.80
2022-09-21T18:04:05.232Z,4.47
2022-09-21T18:06:33.978Z,7.43
2022-09-21T18:09:02.034Z,7.07
2022-09-21T18:12:01.700Z,5.82
2022-09-21T18:14:47.624Z,7.73
2022-09-21T18:18:19.656Z,9.25
2022-09-21T18:21:13.677Z,8.23
2022-09-21T18:24:22.213Z,10.43
2022-09-21T18:26:50.652Z,6.75
2022-09-21T18:29:39.295Z,7.37
2022-09-21T18:32:28.292Z,8.35
2022-09-21T18:35:14.211Z,8.70
2022-09-21T18:38:15.327Z,8.70
2022-09-21T18:40:52.211Z,8.57
2022-09-21T18:43:52.877Z,9.07
2022-09-21T18:46:48.689Z,7.30
2022-09-21T18:49:46.671Z,7.53
2022-09-21T18:52:49.147Z,9.27
2022-09-21T18:55:28.893Z,10.23
2022-09-21T18:57:57.748Z,10.97
2022-09-21T19:00:32.739Z,9.30
2022-09-21T19:03:19.504Z,9.55
2022-09-21T19:06:07.648Z,7.90
2022-09-21T19:08:58.318Z,7.63
2022-09-21T19:11:38.644Z,6.97
2022-09-21T19:14:20.919Z,11.18
2022-09-21T19:17:26.658Z,7.15
2022-09-21T19:20:24.039Z,12.48
2022-09-21T19:23:23.732Z,12.38
2022-09-21T19:26:28.980Z,10.63
2022-09-21T19:29:41.303Z,9.15
2022-09-21T19:32:18.596Z,8.95
2022-09-21T19:34:45.776Z,10.27
2022-09-21T19:37:12.866Z,10.55
2022-09-21T19:39:40.153Z,11.33
2022-09-21T19:42:44.995Z,10.63
2022-09-21T19:45:28.352Z,10.05
2022-09-21T19:48:04.319Z,9.57
2022-09-21T19:50:47.194Z,11.00
2022-09-21T19:53:33.564Z,9.23
2022-09-21T19:56:20.255Z,10.80
2022-09-21T19:59:06.256Z,11.75
2022-09-21T20:01:38.423Z,7.63
2022-09-21T20:04:06.674Z,8.90
2022-09-21T20:06:45.738Z,10.70
2022-09-21T20:09:25.973Z,8.18
2022-09-21T20:12:18.481Z,8.15
2022-09-21T20:15:15.787Z,7.88
2022-09-21T20:18:00.114Z,9.75
2022-09-21T20:20:30.800Z,10.00
2022-09-21T20:22:59.271Z,13.13
2022-09-21T20:25:53.124Z,11.00
2022-09-21T20:28:20.634Z,13.52
2022-09-21T20:30:47.812Z,10.68
2022-09-21T20:33:22.455Z,9.50
2022-09-21T20:35:55.783Z,13.07
2022-09-21T20:38:23.191Z,14.35
2022-09-21T20:40:51.283Z,12.10
2022-09-21T20:43:19.515Z,12.20
2022-09-21T20:45:49.220Z,11.37
2022-09-21T20:48:16.838Z,15.27
2022-09-21T20:50:47.955Z,12.13
2022-09-21T20:53:15.395Z,12.90
2022-09-21T20:55:43.918Z,11.32
2022-09-21T20:58:12.839Z,9.67
2022-09-21T21:00:39.963Z,12.02
2022-09-21T21:03:06.883Z,11.80
2022-09-21T21:05:33.783Z,15.10
2022-09-21T21:08:01.148Z,11.65
2022-09-21T21:10:28.044Z,10.37
2022-09-21T21:12:55.169Z,17.00
2022-09-21T21:15:22.122Z,10.50
2022-09-21T21:17:49.182Z,12.57
2022-09-21T21:20:17.202Z,8.55
2022-09-21T21:22:47.979Z,12.63
2022-09-21T21:25:15.319Z,8.13
2022-09-21T21:27:42.273Z,14.65
2022-09-21T21:30:11.250Z,15.55
2022-09-21T21:32:38.452Z,9.65
2022-09-21T21:35:06.184Z,8.40
2022-09-21T21:37:33.138Z,8.35
2022-09-21T21:40:00.423Z,7.28
2022-09-21T21:42:29.534Z,6.75
2022-09-21T21:44:56.691Z,6.63
2022-09-21T21:47:40.518Z,9.13
2022-09-21T21:50:09.168Z,7.82
2022-09-21T21:52:36.381Z,6.05
2022-09-21T21:55:04.485Z,7.72
2022-09-21T21:57:31.419Z,8.55
2022-09-21T21:59:58.288Z,7.23
2022-09-21T22:02:25.190Z,7.43
2022-09-21T22:04:52.589Z,8.23
2022-09-21T22:07:19.495Z,9.25
2022-09-21T22:09:46.397Z,10.50
2022-09-21T22:12:13.354Z,6.53
2022-09-21T22:14:40.314Z,7.30
2022-09-21T22:17:07.203Z,8.38
2022-09-21T22:19:34.103Z,10.07
2022-09-21T22:22:01.047Z,8.35
2022-09-21T22:24:27.964Z,5.47
2022-09-21T22:26:54.844Z,8.45
2022-09-21T22:29:21.763Z,7.35
2022-09-21T22:31:50.643Z,8.25
2022-09-21T22:34:17.872Z,7.43
2022-09-21T22:36:44.931Z,7.13
2022-09-21T22:39:12.490Z,8.93
2022-09-21T22:41:42.008Z,8.05
2022-09-21T22:44:10.130Z,9.93
2022-09-21T22:46:38.330Z,12.80
2022-09-21T22:49:05.496Z,7.10
2022-09-21T22:51:32.940Z,9.02
2022-09-21T22:54:01.383Z,8.20
2022-09-21T22:56:31.387Z,10.82
2022-09-21T22:59:01.896Z,8.15
2022-09-21T23:01:32.055Z,7.07
2022-09-21T23:04:05.963Z,8.50
2022-09-21T23:06:37.888Z,7.47
2022-09-21T23:09:09.016Z,8.88
2022-09-21T23:11:42.931Z,6.38
2022-09-21T23:14:12.388Z,9.37
2022-09-21T23:16:39.420Z,8.95
2022-09-21T23:19:15.087Z,7.75
2022-09-21T23:21:44.990Z,7.43
2022-09-21T23:24:12.883Z,8.40
2022-09-21T23:26:40.127Z,6.00
2022-09-21T23:29:12.872Z,8.05
2022-09-21T23:31:44.491Z,8.57
2022-09-21T23:34:12.597Z,7.07
2022-09-21T23:36:40.811Z,6.63
2022-09-21T23:39:11.611Z,7.50
2022-09-21T23:41:38.901Z,8.48
2022-09-21T23:44:06.067Z,8.63
2022-09-21T23:46:36.590Z,8.13
2022-09-21T23:49:04.672Z,6.20
2022-09-21T23:51:32.159Z,8.10
2022-09-21T23:54:00.044Z,9.77
2022-09-21T23:56:28.399Z,7.75
2022-09-21T23:58:55.711Z,7.32
